Home > Products > Valid Products > TAF

000
FTUS44 KLUB 260500
TAFLBB
TAF
KLBB 260520Z 2606/2706 20011KT P6SM SKC=



000
FTUS44 KLUB 260500
TAFCDS
TAF
KCDS 260520Z 2606/2706 20008KT P6SM SKC
     FM261700 20016G23KT P6SM FEW250=



000
FTUS44 KLUB 252300
TAFCDS
TAF
KCDS 252320Z 2600/2624 18010KT P6SM SKC=



000
FTUS44 KLUB 252300
TAFLBB
TAF
KLBB 252320Z 2600/2624 18011KT P6SM SKC=



000
FTUS44 KLUB 251700
TAFCDS
TAF
KCDS 251720Z 2518/2618 21010KT P6SM SKC=



000
FTUS44 KLUB 251700
TAFLBB
TAF
KLBB 251720Z 2518/2618 21011KT P6SM SKC=



000
FTUS44 KLUB 251700
TAFCDS
TAF
KCDS 251720Z 2518/2618 21010KT P6SM SKC=



000
FTUS44 KLUB 251700
TAFLBB
TAF
KLBB 251720Z 2518/2618 21011KT P6SM SKC=



000
FTUS44 KLUB 251100
TAFLBB
TAF
KLBB 251120Z 2512/2612 23010KT P6SM SKC=



000
FTUS44 KLUB 251100
TAFCDS
TAF
KCDS 251120Z 2512/2612 22009KT P6SM SKC=



000
FTUS44 KLUB 251100
TAFCDS
TAF
KCDS 251120Z 2512/2612 22009KT P6SM SKC=



000
FTUS44 KLUB 251100
TAFLBB
TAF
KLBB 251120Z 2512/2612 23010KT P6SM SKC=



000
FTUS44 KLUB 250500
TAFCDS
TAF
KCDS 250520Z 2506/2606 21008KT P6SM SKC=



000
FTUS44 KLUB 250500
TAFLBB
TAF
KLBB 250520Z 2506/2606 22008KT P6SM SKC=



000
FTUS44 KLUB 242300
TAFCDS
TAF
KCDS 242320Z 2500/2524 22006KT P6SM SKC=



000
FTUS44 KLUB 242300
TAFLBB
TAF
KLBB 242320Z 2500/2524 23006KT P6SM SKC=



000
FTUS44 KLUB 241700
TAFLBB
TAF
KLBB 241720Z 2418/2518 23011KT P6SM SKC=



000
FTUS44 KLUB 241700
TAFCDS
TAF
KCDS 241720Z 2418/2518 22010KT P6SM SKC=



000
FTUS44 KLUB 241200 AAC
TAFCDS
TAF AMD
KCDS 241241Z 2413/2512 17006KT 5SM BR SKC
     FM241500 21010KT P6SM SKC=



000
FTUS44 KLUB 241200 AAB
TAFCDS
TAF AMD
KCDS 241220Z 2412/2512 17006KT 5SM BR SKC
      TEMPO 2412/2414 1SM BR
     FM241500 21010KT P6SM SKC=



000
FTUS44 KLUB 241100 AAA
TAFCDS
TAF AMD
KCDS 241126Z 2411/2512 17006KT 2SM BR SKC
      TEMPO 2411/2414 1/2SM FG
     FM241500 21010KT P6SM SKC=



000
FTUS44 KLUB 241100
TAFCDS
TAF
KCDS 241120Z 2412/2512 17006KT 2SM BR SKC
     FM241500 21010KT P6SM SKC=



000
FTUS44 KLUB 241100
TAFLBB
TAF
KLBB 241120Z 2412/2512 22011KT P6SM SKC=



000
FTUS44 KLUB 241000 AAF
TAFCDS
TAF AMD
KCDS 241042Z 2411/2506 17006KT 1SM BR SKC
     FM241600 21009KT P6SM FEW030=



000
FTUS44 KLUB 241000 AAE
TAFCDS
TAF AMD
KCDS 241031Z 2411/2506 21006KT 2SM BR SKC
     FM241600 21009KT P6SM FEW030=



000
FTUS44 KLUB 241000 AAF
TAFLBB
TAF AMD
KLBB 241022Z 2410/2506 24006KT 6SM BR FEW010
     FM241600 22011KT P6SM FEW030=



000
FTUS44 KLUB 241000 AAE
TAFLBB
TAF AMD
KLBB 241012Z 2410/2506 24006KT 4SM BR FEW010
      TEMPO 2410/2412 1SM BR
     FM241600 22011KT P6SM FEW030=



000
FTUS44 KLUB 240900 AAD
TAFCDS
TAF AMD
KCDS 240956Z 2410/2506 21006KT 5SM BR FEW010
     FM241100 21006KT 3SM BR FEW010
     FM241600 21009KT P6SM FEW030=



000
FTUS44 KLUB 240900 AAD
TAFCDS
TAF AMD
KCDS 240956Z 2410/2506 21006KT 5SM BR FEW010
     FM241100 21006KT 3SM BR FEW010
     FM241600 21009KT P6SM FEW030=



000
FTUS44 KLUB 240900 AAC
TAFCDS
TAF AMD
KCDS 240902Z 2409/2506 21006KT 5SM BR SKC
     FM241000 21006KT 1SM BR FEW010
     FM241600 21009KT P6SM FEW030=



000
FTUS44 KLUB 240900 AAD
TAFLBB
TAF AMD
KLBB 240900Z 2409/2506 24006KT 2SM BR FEW010
      TEMPO 2409/2413 1/2SM FG
     FM241600 22011KT P6SM FEW030=



000
FTUS44 KLUB 240800 AAC
TAFLBB
TAF AMD
KLBB 240842Z 2409/2506 24006KT 2SM BR FEW010
     FM241600 22011KT P6SM FEW030=



000
FTUS44 KLUB 240800 AAB
TAFCDS
TAF AMD
KCDS 240803Z 2408/2506 20006KT 6SM BR SKC
     FM240900 20006KT 1SM BR FEW010
     FM241600 21009KT P6SM FEW030=



000
FTUS44 KLUB 240800 AAB
TAFLBB
TAF AMD
KLBB 240803Z 2408/2506 24006KT 4SM BR SKC
     FM240900 24006KT 3SM BR FEW010
     FM241600 22011KT P6SM FEW030=



000
FTUS44 KLUB 240700 AAA
TAFLBB
TAF AMD
KLBB 240738Z 2408/2506 24006KT P6SM SKC
     FM240900 24006KT 3SM BR FEW010
     FM241600 22011KT P6SM FEW030=



000
FTUS44 KLUB 240700 AAA
TAFCDS
TAF AMD
KCDS 240700Z 2407/2506 15006KT 6SM BR SKC
     FM240800 20006KT 1SM BR FEW010
     FM241600 21009KT P6SM FEW030=



000
FTUS44 KLUB 240500
TAFCDS
TAF
KCDS 240520Z 2406/2506 17005KT P6SM SKC
     FM240700 15006KT 1SM BR SCT010
     FM241600 21009KT P6SM FEW030=



000
FTUS44 KLUB 240500
TAFLBB
TAF
KLBB 240520Z 2406/2506 23006KT 6SM BR FEW004
     FM240700 24006KT 3SM BR SCT010
     FM241600 22011KT P6SM FEW030=



000
FTUS44 KLUB 232300
TAFCDS
TAF
KCDS 232320Z 2400/2424 17007KT P6SM SKC
     FM240700 15006KT 3SM BR SCT010
     FM241600 21009KT P6SM FEW030=



000
FTUS44 KLUB 232300
TAFLBB
TAF
KLBB 232320Z 2400/2424 19007KT P6SM SKC
     FM240700 24006KT 5SM BR SCT010
     FM241600 22011KT P6SM FEW030=



000
FTUS44 KLUB 231700
TAFLBB
TAF
KLBB 231737Z 2318/2418 23006KT P6SM BKN006
     FM231900 19010KT P6SM FEW030
     FM240400 24006KT P6SM SKC=



000
FTUS44 KLUB 231700
TAFCDS
TAF
KCDS 231737Z 2318/2418 17007KT P6SM FEW030
     FM240600 15006KT 5SM BR SKC=



000
FTUS44 KLUB 231600 AAF
TAFLBB
TAF AMD
KLBB 231618Z 2316/2412 24006KT 5SM BR OVC002
      TEMPO 2316/2317 OVC004
     FM231700 22006KT P6SM BKN006
     FM231800 21010KT P6SM FEW030=



000
FTUS44 KLUB 231600 AAF
TAFLBB
TAF AMD
KLBB 231618Z 2316/2412 24006KT 5SM BR OVC002
      TEMPO 2316/2317 OVC004
     FM231700 22006KT P6SM BKN006
     FM231800 21010KT P6SM FEW030=



000
FTUS44 KLUB 231500 CCA
TAFLBB
TAF COR
KLBB 231501Z 2315/2412 24006KT 1/4SM FG OVC002
      TEMPO 2315/2316 2SM BR OVC004
     FM231600 22006KT P6SM BKN006
     FM231800 21010KT P6SM FEW030=



000
FTUS44 KLUB 231400 AAE
TAFLBB
TAF AMD
KLBB 231456Z 2315/2412 24006KT 3SM BR SCT004
      TEMPO 2315/2316 1/4SM FG OVC002
     FM231600 22006KT P6SM BKN006
     FM231800 21010KT P6SM FEW030=



000
FTUS44 KLUB 231400 AAE
TAFLBB
TAF AMD
KLBB 231456Z 2315/2412 24006KT 3SM BR SCT004
      TEMPO 2315/2316 1/4SM FG OVC002
     FM231600 22006KT P6SM BKN006
     FM231800 21010KT P6SM FEW030=



000
FTUS44 KLUB 231300 AAD
TAFLBB
TAF AMD
KLBB 231355Z 2314/2412 24006KT 3SM BR SCT004
      TEMPO 2314/2315 1/4SM FG OVC002
     FM231600 21010KT P6SM FEW030=



000
FTUS44 KLUB 231300 AAC
TAFLBB
TAF AMD
KLBB 231327Z 2313/2412 24006KT 3SM BR SCT004
      TEMPO 2313/2314 1/4SM FG OVC002
     FM231600 21010KT P6SM FEW030=



000
FTUS44 KLUB 231300 AAB
TAFCDS
TAF AMD
KCDS 231318Z 2313/2412 16005KT 3SM BR SCT002
      TEMPO 2313/2314 1/4SM FG BKN002
     FM231400 19008KT P6SM FEW030=



000
FTUS44 KLUB 231200 AAA
TAFCDS
TAF AMD
KCDS 231237Z 2313/2412 16005KT 3SM BR SCT002
      TEMPO 2313/2314 1SM BR BKN002
     FM231400 19008KT P6SM FEW030=



000
FTUS44 KLUB 231200 AAB
TAFLBB
TAF AMD
KLBB 231225Z 2312/2412 19006KT 3SM BR SCT004
      TEMPO 2312/2314 19007KT 1SM BR OVC004
     FM231600 21010KT P6SM FEW030=



000
FTUS44 KLUB 231200 AAA
TAFLBB
TAF AMD
KLBB 231221Z 2312/2412 19006KT 3SM BR SCT004
     FM231600 21010KT P6SM FEW030=



000
FTUS44 KLUB 231100
TAFCDS
TAF
KCDS 231120Z 2312/2412 16005KT 1/4SM FG OVC002
     FM231400 19008KT P6SM FEW030=



000
FTUS44 KLUB 231100
TAFLBB
TAF
KLBB 231120Z 2312/2412 19006KT 6SM BR SCT004
     FM231230 19005KT 2SM BR OVC004
     FM231600 21010KT P6SM FEW030=



000
FTUS44 KLUB 231100 AAF
TAFCDS
TAF AMD
KCDS 231116Z 2311/2406 16005KT 1/4SM FG OVC002
     FM231400 19008KT P6SM FEW030=



000
FTUS44 KLUB 231100 AAG
TAFLBB
TAF AMD
KLBB 231116Z 2311/2406 19006KT 6SM BR SCT004
     FM231230 19005KT 2SM BR OVC004
     FM231600 21010KT P6SM FEW030=



000
FTUS44 KLUB 231000 AAF
TAFLBB
TAF AMD
KLBB 231018Z 2310/2406 19006KT 6SM BR SCT004
     FM231130 19005KT 2SM BR OVC004
     FM231600 21010KT P6SM FEW030=



000
FTUS44 KLUB 231000 AAF
TAFLBB
TAF AMD
KLBB 231018Z 2310/2406 19006KT 6SM BR SCT004
     FM231130 19005KT 2SM BR OVC004
     FM231600 21010KT P6SM FEW030=



000
FTUS44 KLUB 230900 AAE
TAFLBB
TAF AMD
KLBB 230947Z 2310/2406 19006KT 6SM BR SCT004
     FM231100 19005KT 2SM BR OVC004
     FM231600 21010KT P6SM FEW030=



000
FTUS44 KLUB 230900 AAE
TAFLBB
TAF AMD
KLBB 230947Z 2310/2406 19006KT 6SM BR SCT004
     FM231100 19005KT 2SM BR OVC004
     FM231600 21010KT P6SM FEW030=



000
FTUS44 KLUB 230800 AAD
TAFLBB
TAF AMD
KLBB 230858Z 2309/2406 19006KT 5SM BR SCT004
     FM231000 19005KT 2SM BR OVC004
     FM231600 21010KT P6SM FEW030=



000
FTUS44 KLUB 230800 AAE
TAFCDS
TAF AMD
KCDS 230857Z 2309/2406 16005KT 1SM BR OVC002
     FM231500 19008KT P6SM FEW030=



000
FTUS44 KLUB 230700 AAC
TAFLBB
TAF AMD
KLBB 230725Z 2307/2406 19006KT 3SM BR SCT004
      TEMPO 2307/2310 1SM BR OVC004
     FM231000 19005KT 1SM BR OVC004
     FM231600 21010KT P6SM FEW030=



000
FTUS44 KLUB 230700 AAD
TAFCDS
TAF AMD
KCDS 230701Z 2307/2406 16005KT 1/2SM FG OVC002
     FM231500 19008KT P6SM FEW030=



    US Dept of Commerce
    National Oceanic and Atmospheric Administration
    National Weather Service
    1325 East West Highway
    Silver Spring, MD 20910
    Page Author: NWS Internet Services Team
Disclaimer
Information Quality
Credits
Glossary
Privacy Policy
Freedom of Information Act (FOIA)
About Us
Career Opportunities